Graysville, Missouri
Current Conditions -  °F | °C
As of 6:10 PM on Wednesday 28 Jan 2015 (Local Time) from KTVK Reporting Station
Clear Clear  
Wind Chill:   Ceiling: Unl
Heat Index:   Visibility: 10mi
Dew Point:   Wind: 9mph
Humidity: 71%   Direction: 130°SE
Pressure: 29.71"   Gusts: NA
Location:  40.4961°N, 92.9907°W
Report Text: KTVK 290010Z AUTO 13008KT 10SM CLR 08/03 A2971 RMK AO2
Loading
Personal Weather Stations






























Interactive Weather Map New forecast layout! Learn more

10-Day Weather Forecast

Advertisements
Track Severe Weather on mobile